Time;durP1;ratioP1;P1;durP2;ratioP2;P2;SDS_P1;SDS_P2;PMS_P1;PMS_P2;Temp;Humidity;BMP_temperature;BMP_pressure;BME280_temperature;BME280_humidity;BME280_pressure;Samples;Min_cycle;Max_cycle;Signal;HPM_P1;HPM_P2
2023/04/27 00:00:09;;;;;;;;;;;6.70;99.80;;;;;;6111875;23;19931;-62
2023/04/27 00:02:36;;;;;;;;;;;6.60;99.70;;;;;;6110865;23;19930;-62
2023/04/27 00:05:02;;;;;;;;;;;6.60;99.10;;;;;;6112259;23;19994;-62
2023/04/27 00:07:27;;;;;;;;;;;6.70;99.50;;;;;;6109603;23;19952;-62
2023/04/27 00:09:53;;;;;;;;;;;6.70;99.20;;;;;;6108554;23;20346;-62
2023/04/27 00:12:18;;;;;;;;;;;6.40;99.20;;;;;;6111735;23;19940;-62
2023/04/27 00:14:44;;;;;;;;;;;6.20;99.40;;;;;;6110181;23;20396;-63
2023/04/27 00:17:10;;;;;;;;;;;6.00;99.90;;;;;;6110630;23;19936;-62
2023/04/27 00:19:35;;;;;;;;;;;5.90;99.90;;;;;;6109336;23;20584;-63
2023/04/27 00:22:01;;;;;;;;;;;5.80;99.90;;;;;;6108841;23;19953;-62
2023/04/27 00:24:26;;;;;;;;;;;5.80;99.90;;;;;;6110073;23;19955;-62
2023/04/27 00:26:52;;;;;;;;;;;5.80;99.90;;;;;;6111807;23;19956;-62
2023/04/27 00:29:17;;;;;;;;;;;5.70;99.90;;;;;;6109974;23;20484;-62
2023/04/27 00:31:43;;;;;;;;;;;5.60;99.90;;;;;;6106704;23;19955;-62
2023/04/27 00:34:09;;;;;;;;;;;5.60;99.90;;;;;;6108062;23;19938;-62
2023/04/27 00:36:34;;;;;;;;;;;5.70;99.90;;;;;;6111081;23;20619;-62
2023/04/27 00:39:01;;;;;;;;;;;5.70;99.90;;;;;;6110899;23;20330;-62
2023/04/27 00:41:27;;;;;;;;;;;5.90;99.90;;;;;;6109706;23;19999;-62
2023/04/27 00:43:52;;;;;;;;;;;5.90;99.90;;;;;;6111962;23;20405;-62
2023/04/27 00:46:18;;;;;;;;;;;5.80;99.90;;;;;;6109237;23;19998;-62
2023/04/27 00:48:44;;;;;;;;;;;5.70;99.90;;;;;;6111315;23;20633;-63
2023/04/27 00:51:10;;;;;;;;;;;5.60;99.90;;;;;;6110809;23;19934;-62
2023/04/27 00:53:36;;;;;;;;;;;5.60;99.90;;;;;;6110923;23;20783;-62
2023/04/27 00:56:02;;;;;;;;;;;5.50;99.90;;;;;;6107548;23;19923;-62
2023/04/27 00:58:28;;;;;;;;;;;5.40;99.90;;;;;;6109000;23;20001;-63
2023/04/27 01:00:53;;;;;;;;;;;5.30;99.90;;;;;;6110405;23;20009;-63
2023/04/27 01:03:19;;;;;;;;;;;5.20;99.90;;;;;;6108091;23;19983;-63
2023/04/27 01:05:44;;;;;;;;;;;5.20;99.90;;;;;;6108814;23;20202;-66
2023/04/27 01:08:10;;;;;;;;;;;5.20;99.90;;;;;;6081782;23;20459;-65
2023/04/27 01:10:36;;;;;;;;;;;5.10;99.90;;;;;;6107518;23;19936;-65
2023/04/27 01:13:02;;;;;;;;;;;5.10;99.90;;;;;;6107866;23;20362;-66
2023/04/27 01:15:28;;;;;;;;;;;5.10;99.90;;;;;;6107604;23;19938;-66
2023/04/27 01:18:00;;;;;;;;;;;5.10;99.90;;;;;;6106352;23;19936;-66
2023/04/27 01:20:29;;;;;;;;;;;5.10;99.90;;;;;;6110174;23;19927;-66
2023/04/27 01:22:55;;;;;;;;;;;5.00;99.90;;;;;;6108512;23;20109;-65
2023/04/27 01:25:20;;;;;;;;;;;5.00;99.90;;;;;;6109766;23;19955;-65
2023/04/27 01:27:46;;;;;;;;;;;5.00;99.90;;;;;;6108756;23;19962;-66
2023/04/27 01:30:11;;;;;;;;;;;5.00;99.90;;;;;;6107548;23;19927;-66
2023/04/27 01:32:37;;;;;;;;;;;4.90;99.90;;;;;;6106413;23;19950;-66
2023/04/27 01:35:03;;;;;;;;;;;4.80;99.90;;;;;;6108605;23;20645;-65
2023/04/27 01:37:29;;;;;;;;;;;4.70;99.90;;;;;;6107419;23;20360;-65
2023/04/27 01:39:55;;;;;;;;;;;4.70;99.90;;;;;;6110198;23;19947;-66
2023/04/27 01:42:20;;;;;;;;;;;4.70;99.90;;;;;;6107767;23;19940;-66
2023/04/27 01:44:47;;;;;;;;;;;4.60;99.90;;;;;;6108703;23;20682;-66
2023/04/27 01:47:14;;;;;;;;;;;4.60;99.90;;;;;;6107008;23;20545;-66
2023/04/27 01:49:39;;;;;;;;;;;4.50;99.90;;;;;;6108088;23;19932;-65
2023/04/27 01:52:04;;;;;;;;;;;4.40;99.90;;;;;;6107397;23;20396;-66
2023/04/27 01:54:30;;;;;;;;;;;4.40;99.90;;;;;;6109690;23;19935;-66
2023/04/27 01:56:57;;;;;;;;;;;4.30;99.90;;;;;;6107333;23;20014;-66
2023/04/27 01:59:22;;;;;;;;;;;4.30;99.90;;;;;;6084358;23;19931;-66
2023/04/27 02:01:48;;;;;;;;;;;4.30;99.90;;;;;;6109919;23;19990;-66
2023/04/27 02:04:14;;;;;;;;;;;4.30;99.90;;;;;;6109524;23;19928;-66
2023/04/27 02:06:40;;;;;;;;;;;4.30;99.90;;;;;;6109901;23;19950;-66
2023/04/27 02:09:05;;;;;;;;;;;4.30;99.90;;;;;;6110739;23;19932;-67
2023/04/27 02:11:31;;;;;;;;;;;4.30;99.90;;;;;;6110431;23;19926;-66
2023/04/27 02:13:56;;;;;;;;;;;4.30;99.90;;;;;;6111565;23;19991;-66
2023/04/27 02:16:22;;;;;;;;;;;4.20;99.90;;;;;;6109202;23;19928;-67
2023/04/27 02:18:48;;;;;;;;;;;4.20;99.90;;;;;;6111232;23;20025;-66
2023/04/27 02:21:13;;;;;;;;;;;4.10;99.90;;;;;;6107978;23;20006;-63
2023/04/27 02:23:39;;;;;;;;;;;4.10;99.90;;;;;;6110729;23;19937;-63
2023/04/27 02:26:04;;;;;;;;;;;4.00;99.90;;;;;;6110418;23;19943;-63
2023/04/27 02:28:31;;;;;;;;;;;4.00;99.90;;;;;;6111415;23;19967;-63
2023/04/27 02:30:56;;;;;;;;;;;4.00;99.90;;;;;;6108899;23;19936;-63
2023/04/27 02:33:22;;;;;;;;;;;3.80;99.90;;;;;;6111523;23;19932;-63
2023/04/27 02:35:47;;;;;;;;;;;3.80;99.90;;;;;;6110184;23;19945;-63
2023/04/27 02:38:13;;;;;;;;;;;3.80;99.90;;;;;;6110294;23;19934;-63
2023/04/27 02:40:38;;;;;;;;;;;3.80;99.90;;;;;;6110945;23;20694;-63
2023/04/27 02:43:04;;;;;;;;;;;3.80;99.90;;;;;;6110706;23;19954;-63
2023/04/27 02:45:30;;;;;;;;;;;3.80;99.90;;;;;;6110001;23;19934;-63
2023/04/27 02:47:55;;;;;;;;;;;3.90;99.90;;;;;;6111355;23;19967;-63
2023/04/27 02:50:21;;;;;;;;;;;3.90;99.90;;;;;;6111419;23;19966;-63
2023/04/27 02:52:46;;;;;;;;;;;3.90;99.90;;;;;;6110773;23;19924;-63
2023/04/27 02:55:13;;;;;;;;;;;3.80;99.90;;;;;;6110594;23;19934;-64
2023/04/27 02:57:39;;;;;;;;;;;3.80;99.90;;;;;;6112286;23;19996;-64
2023/04/27 03:00:06;;;;;;;;;;;3.90;99.90;;;;;;6110821;23;20420;-63
2023/04/27 03:02:31;;;;;;;;;;;3.80;99.90;;;;;;6111635;23;19943;-63
2023/04/27 03:04:58;;;;;;;;;;;3.80;99.90;;;;;;6113430;23;19936;-63
2023/04/27 03:07:23;;;;;;;;;;;3.80;99.90;;;;;;6114168;23;20090;-64
2023/04/27 03:09:49;;;;;;;;;;;3.80;99.90;;;;;;6111761;23;19965;-63
2023/04/27 03:12:15;;;;;;;;;;;3.80;99.90;;;;;;6112309;23;19931;-63
2023/04/27 03:14:40;;;;;;;;;;;3.70;99.90;;;;;;6113690;23;19933;-63
2023/04/27 03:17:06;;;;;;;;;;;3.70;99.90;;;;;;6113192;23;19958;-63
2023/04/27 03:19:31;;;;;;;;;;;3.70;99.90;;;;;;6108714;23;19936;-63
2023/04/27 03:21:57;;;;;;;;;;;3.70;99.90;;;;;;6113782;23;19929;-63
2023/04/27 03:24:24;;;;;;;;;;;3.70;99.90;;;;;;6110322;23;19932;-63
2023/04/27 03:26:50;;;;;;;;;;;3.60;99.90;;;;;;6111731;23;19954;-63
2023/04/27 03:29:15;;;;;;;;;;;3.60;99.90;;;;;;6111974;23;20586;-63
2023/04/27 03:31:41;;;;;;;;;;;3.60;99.90;;;;;;6111823;23;19936;-63
2023/04/27 03:34:06;;;;;;;;;;;3.60;99.90;;;;;;6108379;23;20414;-63
2023/04/27 03:36:32;;;;;;;;;;;3.60;99.90;;;;;;6112791;23;19927;-63
2023/04/27 03:38:57;;;;;;;;;;;3.50;99.90;;;;;;6111451;23;19935;-66
2023/04/27 03:41:23;;;;;;;;;;;3.40;99.90;;;;;;6112570;23;19927;-67
2023/04/27 03:43:49;;;;;;;;;;;3.40;99.90;;;;;;6110710;23;20074;-66
2023/04/27 03:46:15;;;;;;;;;;;3.40;99.90;;;;;;6111244;23;20362;-66
2023/04/27 03:48:42;;;;;;;;;;;3.40;99.90;;;;;;6111509;23;19936;-66
2023/04/27 03:51:08;;;;;;;;;;;3.40;99.90;;;;;;6083838;23;19945;-66
2023/04/27 03:53:33;;;;;;;;;;;3.30;99.90;;;;;;6085670;23;19938;-66
2023/04/27 03:56:00;;;;;;;;;;;3.30;99.90;;;;;;6111316;23;19936;-63
2023/04/27 03:58:26;;;;;;;;;;;3.30;99.90;;;;;;6111950;23;20674;-63
2023/04/27 04:00:53;;;;;;;;;;;3.30;99.90;;;;;;6108143;23;19937;-63
2023/04/27 04:03:18;;;;;;;;;;;3.40;99.90;;;;;;6111143;23;20000;-63
2023/04/27 04:05:45;;;;;;;;;;;3.50;99.90;;;;;;6106179;23;20296;-63
2023/04/27 04:08:12;;;;;;;;;;;3.50;99.90;;;;;;6110728;23;19931;-63
2023/04/27 04:10:38;;;;;;;;;;;3.50;99.90;;;;;;6085814;23;19937;-63
2023/04/27 04:13:03;;;;;;;;;;;3.50;99.90;;;;;;6111478;23;19927;-63
2023/04/27 04:15:29;;;;;;;;;;;3.50;99.90;;;;;;6111063;23;20371;-63
2023/04/27 04:17:54;;;;;;;;;;;3.50;99.90;;;;;;6112020;23;19930;-63
2023/04/27 04:20:20;;;;;;;;;;;3.50;99.90;;;;;;6110367;23;19953;-63
2023/04/27 04:22:45;;;;;;;;;;;3.60;99.90;;;;;;6105053;23;20678;-64
2023/04/27 04:25:11;;;;;;;;;;;3.60;99.90;;;;;;6108658;23;20440;-63
2023/04/27 04:27:37;;;;;;;;;;;3.70;99.90;;;;;;6111279;23;20004;-63
2023/04/27 04:30:05;;;;;;;;;;;3.80;99.90;;;;;;6111665;23;19939;-64
2023/04/27 04:32:30;;;;;;;;;;;3.80;99.90;;;;;;6109905;23;19966;-63
2023/04/27 04:34:57;;;;;;;;;;;3.90;99.90;;;;;;6110728;23;19927;-64
2023/04/27 04:37:23;;;;;;;;;;;3.90;99.90;;;;;;6110989;23;19929;-65
2023/04/27 04:39:48;;;;;;;;;;;3.90;99.90;;;;;;6110934;23;19947;-65
2023/04/27 04:42:14;;;;;;;;;;;3.80;99.90;;;;;;6108286;23;19935;-65
2023/04/27 04:44:40;;;;;;;;;;;3.80;99.90;;;;;;6109960;23;19963;-65
2023/04/27 04:47:05;;;;;;;;;;;3.80;99.90;;;;;;6109550;23;19956;-65
2023/04/27 04:49:31;;;;;;;;;;;3.90;99.90;;;;;;6113294;23;19935;-66
2023/04/27 04:51:56;;;;;;;;;;;4.00;99.90;;;;;;6107994;23;19927;-65
2023/04/27 04:54:22;;;;;;;;;;;4.10;99.90;;;;;;6111997;23;19965;-64
2023/04/27 04:56:47;;;;;;;;;;;4.10;99.90;;;;;;6110787;23;19935;-66
2023/04/27 04:59:13;;;;;;;;;;;4.30;99.90;;;;;;6106417;23;20460;-65
2023/04/27 05:01:38;;;;;;;;;;;4.30;99.90;;;;;;6106745;23;19938;-66
2023/04/27 05:04:04;;;;;;;;;;;4.30;99.90;;;;;;6108922;23;19955;-66
2023/04/27 05:06:30;;;;;;;;;;;4.50;99.90;;;;;;6104755;23;20000;-66
2023/04/27 05:08:56;;;;;;;;;;;4.60;99.90;;;;;;6105252;23;19966;-65
2023/04/27 05:11:21;;;;;;;;;;;4.80;99.90;;;;;;6107520;23;19972;-65
2023/04/27 05:13:47;;;;;;;;;;;4.90;99.90;;;;;;6097751;23;19916;-65
2023/04/27 05:16:12;;;;;;;;;;;5.10;99.90;;;;;;6101026;23;19938;-65
2023/04/27 05:18:38;;;;;;;;;;;5.20;99.90;;;;;;6079562;23;19964;-65
2023/04/27 05:21:04;;;;;;;;;;;5.40;99.90;;;;;;6104523;23;20424;-65
2023/04/27 05:23:29;;;;;;;;;;;5.60;99.90;;;;;;6106529;23;19996;-65
2023/04/27 05:25:55;;;;;;;;;;;5.70;99.90;;;;;;6106110;23;19936;-65
2023/04/27 05:28:20;;;;;;;;;;;5.90;99.90;;;;;;6108448;23;20381;-70
2023/04/27 05:30:46;;;;;;;;;;;6.10;99.90;;;;;;6106959;23;19979;-64
2023/04/27 05:33:11;;;;;;;;;;;6.30;99.90;;;;;;6108149;23;20644;-64
2023/04/27 05:35:37;;;;;;;;;;;6.50;99.90;;;;;;6107275;23;19916;-64
2023/04/27 05:38:02;;;;;;;;;;;6.50;99.90;;;;;;6107107;23;19956;-65
2023/04/27 05:40:28;;;;;;;;;;;6.50;99.90;;;;;;6108190;23;19979;-65
2023/04/27 05:42:54;;;;;;;;;;;6.60;99.90;;;;;;6108410;23;19989;-64
2023/04/27 05:45:20;;;;;;;;;;;6.80;99.90;;;;;;6108399;23;20007;-64
2023/04/27 05:47:46;;;;;;;;;;;7.00;99.90;;;;;;6084415;23;19924;-65
2023/04/27 05:50:12;;;;;;;;;;;7.20;99.90;;;;;;6112693;23;20250;-64
2023/04/27 05:52:38;;;;;;;;;;;7.30;99.90;;;;;;6110861;23;19956;-63
2023/04/27 05:55:04;;;;;;;;;;;7.50;99.90;;;;;;6112628;23;20056;-63
2023/04/27 05:57:30;;;;;;;;;;;7.60;99.90;;;;;;6112545;23;20343;-63
2023/04/27 05:59:55;;;;;;;;;;;7.70;99.90;;;;;;6112215;23;19943;-63
2023/04/27 06:02:21;;;;;;;;;;;7.70;99.90;;;;;;6111221;23;19979;-63
2023/04/27 06:04:46;;;;;;;;;;;7.70;99.90;;;;;;6111037;23;19991;-62
2023/04/27 06:07:13;;;;;;;;;;;7.80;99.90;;;;;;6112388;23;19917;-63
2023/04/27 06:09:38;;;;;;;;;;;7.90;99.90;;;;;;6111820;23;19992;-62
2023/04/27 06:12:04;;;;;;;;;;;8.10;99.90;;;;;;6112202;23;19932;-63
2023/04/27 06:14:31;;;;;;;;;;;8.20;99.90;;;;;;6111469;23;19939;-63
2023/04/27 06:16:56;;;;;;;;;;;8.20;99.90;;;;;;6111365;23;20250;-63
2023/04/27 06:19:22;;;;;;;;;;;8.30;99.90;;;;;;6112681;23;19909;-63
2023/04/27 06:21:47;;;;;;;;;;;8.40;99.90;;;;;;6108667;23;19928;-63
2023/04/27 06:24:13;;;;;;;;;;;8.50;99.90;;;;;;6113419;23;19983;-63
2023/04/27 06:26:38;;;;;;;;;;;8.70;99.90;;;;;;6109081;23;19928;-62
2023/04/27 06:29:06;;;;;;;;;;;8.90;99.90;;;;;;6112487;23;19961;-62
2023/04/27 06:31:32;;;;;;;;;;;8.90;99.90;;;;;;6107494;23;19944;-66
2023/04/27 06:33:57;;;;;;;;;;;9.00;99.90;;;;;;6108258;23;19967;-65
2023/04/27 06:36:24;;;;;;;;;;;9.10;99.90;;;;;;6109692;23;19963;-65
2023/04/27 06:38:49;;;;;;;;;;;9.20;99.90;;;;;;6113642;23;19960;-65
2023/04/27 06:41:15;;;;;;;;;;;9.20;99.90;;;;;;6113448;23;19942;-65
2023/04/27 06:43:40;;;;;;;;;;;9.30;99.90;;;;;;6108269;23;20000;-66
2023/04/27 06:46:06;;;;;;;;;;;9.40;99.90;;;;;;6111018;23;19909;-65
2023/04/27 06:48:31;;;;;;;;;;;9.60;99.90;;;;;;6114561;23;19940;-65
2023/04/27 06:50:57;;;;;;;;;;;9.70;99.90;;;;;;6113732;23;20429;-65
2023/04/27 06:53:22;;;;;;;;;;;9.80;99.90;;;;;;6112724;23;19933;-65
2023/04/27 06:55:48;;;;;;;;;;;10.00;99.90;;;;;;6114959;23;19912;-65
2023/04/27 06:58:13;;;;;;;;;;;10.00;99.90;;;;;;6111899;23;19960;-65
2023/04/27 07:00:39;;;;;;;;;;;10.10;99.90;;;;;;6113251;23;20461;-65
2023/04/27 07:03:05;;;;;;;;;;;10.30;99.90;;;;;;6086311;23;19909;-65
2023/04/27 07:05:32;;;;;;;;;;;10.40;99.90;;;;;;6113498;23;19905;-65
2023/04/27 07:07:57;;;;;;;;;;;10.50;99.90;;;;;;6108392;23;19960;-64
2023/04/27 07:10:23;;;;;;;;;;;10.60;99.90;;;;;;6113324;23;19909;-65
2023/04/27 07:12:48;;;;;;;;;;;10.70;99.40;;;;;;6087446;23;19993;-65
2023/04/27 07:15:14;;;;;;;;;;;10.80;99.20;;;;;;6112596;23;19908;-66
2023/04/27 07:17:40;;;;;;;;;;;10.90;99.50;;;;;;6113136;23;20614;-63
2023/04/27 07:20:06;;;;;;;;;;;11.00;98.10;;;;;;6112393;23;20450;-64
2023/04/27 07:22:32;;;;;;;;;;;11.10;97.40;;;;;;6111307;23;19905;-65
2023/04/27 07:24:57;;;;;;;;;;;11.20;97.20;;;;;;6110673;23;19909;-65
2023/04/27 07:27:23;;;;;;;;;;;11.30;97.60;;;;;;6088437;23;19920;-63
2023/04/27 07:29:49;;;;;;;;;;;11.40;94.80;;;;;;6112880;23;19939;-63
2023/04/27 07:32:14;;;;;;;;;;;11.50;94.80;;;;;;6108859;23;19909;-63
2023/04/27 07:34:40;;;;;;;;;;;11.60;84.50;;;;;;6085610;23;19937;-63
2023/04/27 07:37:06;;;;;;;;;;;11.60;77.90;;;;;;6110716;23;20432;-63
2023/04/27 07:39:32;;;;;;;;;;;11.70;78.40;;;;;;6111082;23;19916;-63
2023/04/27 07:41:58;;;;;;;;;;;11.70;83.00;;;;;;6114023;23;20673;-60
2023/04/27 07:44:23;;;;;;;;;;;11.70;82.80;;;;;;6111113;23;19948;-60
2023/04/27 07:46:52;;;;;;;;;;;11.90;81.60;;;;;;6111044;23;19921;-61
2023/04/27 07:49:18;;;;;;;;;;;11.90;81.50;;;;;;6109420;23;19909;-61
2023/04/27 07:51:44;;;;;;;;;;;11.90;81.00;;;;;;6106005;23;20605;-61
2023/04/27 07:54:10;;;;;;;;;;;12.10;81.60;;;;;;6112448;23;19905;-60
2023/04/27 07:56:35;;;;;;;;;;;12.30;78.20;;;;;;6109167;23;19963;-60
2023/04/27 07:59:01;;;;;;;;;;;12.40;81.70;;;;;;6114435;23;19905;-60
2023/04/27 08:01:26;;;;;;;;;;;12.50;76.40;;;;;;6110323;23;19905;-60
2023/04/27 08:03:52;;;;;;;;;;;12.50;80.00;;;;;;6110618;23;19916;-60
2023/04/27 08:06:18;;;;;;;;;;;12.50;79.20;;;;;;6106588;23;19919;-61
2023/04/27 08:08:43;;;;;;;;;;;12.50;75.40;;;;;;6109380;23;19917;-60
2023/04/27 08:11:09;;;;;;;;;;;12.40;73.70;;;;;;6112550;23;19913;-60
2023/04/27 08:13:35;;;;;;;;;;;12.50;75.10;;;;;;6085214;23;19980;-60
2023/04/27 08:16:00;;;;;;;;;;;12.50;76.90;;;;;;6112988;23;20482;-61
2023/04/27 08:18:26;;;;;;;;;;;12.40;75.30;;;;;;6111411;23;20389;-60
2023/04/27 08:20:52;;;;;;;;;;;12.20;76.40;;;;;;6110090;23;19936;-60
2023/04/27 08:23:17;;;;;;;;;;;12.20;77.80;;;;;;6113444;23;19991;-60
2023/04/27 08:25:43;;;;;;;;;;;12.30;75.90;;;;;;6109477;23;19956;-60
2023/04/27 08:28:08;;;;;;;;;;;12.40;73.90;;;;;;6111413;23;19987;-61
2023/04/27 08:30:34;;;;;;;;;;;12.40;73.00;;;;;;6111351;23;20528;-60
2023/04/27 08:32:59;;;;;;;;;;;12.50;78.20;;;;;;6110059;23;20440;-61
2023/04/27 08:35:25;;;;;;;;;;;12.70;75.90;;;;;;6111656;23;19912;-60
2023/04/27 08:37:52;;;;;;;;;;;12.80;75.30;;;;;;6111122;23;19956;-61
2023/04/27 08:40:18;;;;;;;;;;;12.90;71.70;;;;;;6112130;23;19963;-60
2023/04/27 08:42:52;;;;;;;;;;;12.90;72.80;;;;;;6112405;23;19988;-60
2023/04/27 08:45:18;;;;;;;;;;;13.10;73.50;;;;;;6111875;23;19916;-63
2023/04/27 08:47:45;;;;;;;;;;;13.20;75.60;;;;;;6109527;23;19920;-63
2023/04/27 08:50:11;;;;;;;;;;;13.30;70.40;;;;;;6111091;23;19909;-63
2023/04/27 08:52:37;;;;;;;;;;;13.30;70.90;;;;;;6108879;23;19915;-63
2023/04/27 08:55:03;;;;;;;;;;;13.20;68.50;;;;;;6113175;23;20336;-62
2023/04/27 08:57:29;;;;;;;;;;;13.30;70.40;;;;;;6110033;23;19951;-63
2023/04/27 09:00:03;;;;;;;;;;;13.50;68.20;;;;;;6110755;23;19908;-60
2023/04/27 09:02:29;;;;;;;;;;;13.50;69.30;;;;;;6083960;23;19956;-63
2023/04/27 09:04:55;;;;;;;;;;;13.40;65.80;;;;;;6109426;23;19909;-63
2023/04/27 09:07:20;;;;;;;;;;;13.30;66.80;;;;;;6110971;23;19913;-62
2023/04/27 09:09:49;;;;;;;;;;;13.10;66.30;;;;;;6112086;23;19971;-62
2023/04/27 09:12:16;;;;;;;;;;;12.90;66.30;;;;;;6113099;23;20251;-63
2023/04/27 09:14:42;;;;;;;;;;;12.70;66.40;;;;;;6112134;23;19909;-63
2023/04/27 09:17:08;;;;;;;;;;;12.70;69.10;;;;;;6109342;23;20023;-62
2023/04/27 09:19:33;;;;;;;;;;;13.00;68.80;;;;;;6083531;23;19996;-60
2023/04/27 09:22:06;;;;;;;;;;;13.30;67.10;;;;;;6113208;23;20044;-63
2023/04/27 09:24:32;;;;;;;;;;;13.50;66.10;;;;;;6112139;23;19905;-63
2023/04/27 09:26:58;;;;;;;;;;;13.60;69.20;;;;;;6111770;23;19921;-64
2023/04/27 09:29:37;;;;;;;;;;;13.60;64.70;;;;;;6112222;23;19904;-63
2023/04/27 09:32:13;;;;;;;;;;;13.80;64.30;;;;;;6112321;23;19909;-65
2023/04/27 09:34:39;;;;;;;;;;;13.80;62.20;;;;;;6112231;23;20313;-63
2023/04/27 09:37:06;;;;;;;;;;;13.80;61.60;;;;;;6112625;23;19916;-62
2023/04/27 09:39:31;;;;;;;;;;;13.80;65.60;;;;;;6109687;23;19912;-60
2023/04/27 09:41:57;;;;;;;;;;;13.70;62.60;;;;;;6106989;23;19926;-64
2023/04/27 09:44:22;;;;;;;;;;;13.80;63.70;;;;;;6109858;23;19917;-63
2023/04/27 09:46:50;;;;;;;;;;;13.80;65.70;;;;;;6085841;23;20294;-63
2023/04/27 09:49:16;;;;;;;;;;;14.00;67.50;;;;;;6111269;23;20092;-63
2023/04/27 09:51:42;;;;;;;;;;;14.00;64.10;;;;;;6113251;23;19909;-63
2023/04/27 09:54:09;;;;;;;;;;;13.80;63.30;;;;;;6112407;23;20216;-62
2023/04/27 09:56:53;;;;;;;;;;;13.80;67.00;;;;;;6112343;23;20057;-62
2023/04/27 09:59:19;;;;;;;;;;;13.90;67.00;;;;;;6111020;23;19912;-61
2023/04/27 10:01:49;;;;;;;;;;;13.80;69.30;;;;;;6112206;23;19912;-61
2023/04/27 10:04:34;;;;;;;;;;;13.70;70.10;;;;;;6112867;23;19961;-61
2023/04/27 10:07:00;;;;;;;;;;;13.50;69.80;;;;;;6113192;23;19921;-62
2023/04/27 10:09:26;;;;;;;;;;;13.40;70.10;;;;;;6085706;23;19916;-61
2023/04/27 10:11:53;;;;;;;;;;;13.30;69.60;;;;;;6114558;23;19905;-61
2023/04/27 10:14:20;;;;;;;;;;;13.20;71.10;;;;;;6112031;23;19936;-60
2023/04/27 10:16:45;;;;;;;;;;;13.30;69.00;;;;;;6110023;23;20104;-61
2023/04/27 10:19:11;;;;;;;;;;;13.30;67.20;;;;;;6114582;23;20231;-60
2023/04/27 10:21:37;;;;;;;;;;;13.20;67.70;;;;;;6111680;23;20258;-63
2023/04/27 10:24:10;;;;;;;;;;;13.20;69.30;;;;;;6114117;23;19909;-63
2023/04/27 10:26:44;;;;;;;;;;;13.30;74.20;;;;;;6112526;23;19913;-63
2023/04/27 10:29:11;;;;;;;;;;;13.50;68.70;;;;;;6111653;23;20036;-64
2023/04/27 10:31:42;;;;;;;;;;;13.40;71.00;;;;;;6113600;23;19912;-63
2023/04/27 10:34:08;;;;;;;;;;;13.40;69.10;;;;;;6113757;23;19912;-63
2023/04/27 10:36:36;;;;;;;;;;;13.30;70.60;;;;;;6111779;23;19909;-63
2023/04/27 10:39:02;;;;;;;;;;;13.10;76.10;;;;;;6113359;23;19908;-65
2023/04/27 10:41:35;;;;;;;;;;;13.10;70.20;;;;;;6113541;23;19909;-65
2023/04/27 10:44:32;;;;;;;;;;;13.00;69.50;;;;;;6113713;23;20011;-65
2023/04/27 10:47:18;;;;;;;;;;;13.00;71.90;;;;;;6033880;23;19921;-66
2023/04/27 10:49:44;;;;;;;;;;;13.40;70.40;;;;;;6108593;23;19987;-65
2023/04/27 10:52:10;;;;;;;;;;;13.60;69.50;;;;;;6112605;23;19944;-65
2023/04/27 10:54:36;;;;;;;;;;;13.90;65.70;;;;;;6114812;23;19909;-65
2023/04/27 10:57:09;;;;;;;;;;;13.90;63.80;;;;;;6112505;23;19905;-65
2023/04/27 10:59:46;;;;;;;;;;;14.00;62.80;;;;;;6114155;23;19979;-65
2023/04/27 11:02:11;;;;;;;;;;;13.90;69.70;;;;;;6114296;23;20321;-65
2023/04/27 11:04:39;;;;;;;;;;;13.80;72.50;;;;;;6110095;23;19940;-65
2023/04/27 11:07:05;;;;;;;;;;;13.70;72.70;;;;;;6108131;23;19913;-65
2023/04/27 11:09:31;;;;;;;;;;;13.70;72.40;;;;;;6109461;23;20546;-65
2023/04/27 11:11:56;;;;;;;;;;;13.70;70.80;;;;;;6112261;23;19908;-65
2023/04/27 11:14:22;;;;;;;;;;;13.50;70.70;;;;;;6113114;23;20489;-65
2023/04/27 11:16:47;;;;;;;;;;;13.30;68.60;;;;;;6112238;23;19944;-62
2023/04/27 11:19:13;;;;;;;;;;;13.20;67.40;;;;;;6112348;23;19935;-63
2023/04/27 11:21:39;;;;;;;;;;;13.10;70.70;;;;;;6108707;23;20692;-63
2023/04/27 11:24:05;;;;;;;;;;;13.00;70.40;;;;;;6106955;23;19935;-63
2023/04/27 11:26:31;;;;;;;;;;;13.00;68.00;;;;;;6111534;23;19917;-63
2023/04/27 11:29:03;;;;;;;;;;;12.90;70.50;;;;;;6086421;23;20401;-62
2023/04/27 11:31:42;;;;;;;;;;;12.80;68.10;;;;;;6110557;23;19963;-62
2023/04/27 11:34:08;;;;;;;;;;;12.80;68.00;;;;;;6112994;23;19905;-63
2023/04/27 11:36:34;;;;;;;;;;;12.80;69.50;;;;;;6110975;23;19909;-60
2023/04/27 11:39:00;;;;;;;;;;;13.10;68.30;;;;;;6111381;23;19945;-60
2023/04/27 11:41:32;;;;;;;;;;;13.40;66.60;;;;;;6084025;23;19944;-61
2023/04/27 11:44:03;;;;;;;;;;;13.60;62.00;;;;;;6113295;23;19924;-61
2023/04/27 11:46:28;;;;;;;;;;;13.70;68.60;;;;;;6108904;23;19917;-60
2023/04/27 11:49:00;;;;;;;;;;;13.90;64.80;;;;;;6111506;23;20234;-61
2023/04/27 11:51:25;;;;;;;;;;;13.70;64.90;;;;;;6109664;23;19909;-60
2023/04/27 11:53:51;;;;;;;;;;;13.60;68.50;;;;;;6111924;23;19947;-60
2023/04/27 11:56:17;;;;;;;;;;;13.60;73.00;;;;;;6086796;23;20338;-61
2023/04/27 11:58:43;;;;;;;;;;;13.60;68.50;;;;;;6111452;23;19909;-60
2023/04/27 12:01:10;;;;;;;;;;;13.80;72.90;;;;;;6110639;23;20715;-61
2023/04/27 12:03:36;;;;;;;;;;;14.00;68.30;;;;;;6108596;23;19909;-61
2023/04/27 12:06:02;;;;;;;;;;;14.00;66.60;;;;;;6079814;23;19924;-60
2023/04/27 12:08:27;;;;;;;;;;;14.10;61.60;;;;;;6108251;23;19909;-61
2023/04/27 12:10:53;;;;;;;;;;;14.20;68.70;;;;;;6108406;23;19909;-60
2023/04/27 12:13:19;;;;;;;;;;;14.40;62.30;;;;;;6110639;23;19913;-63
2023/04/27 12:15:45;;;;;;;;;;;14.20;58.90;;;;;;6111833;23;20125;-63
2023/04/27 12:18:10;;;;;;;;;;;14.10;60.80;;;;;;6108896;23;19916;-63
2023/04/27 12:20:36;;;;;;;;;;;14.00;63.60;;;;;;6110415;23;19909;-62
2023/04/27 12:23:01;;;;;;;;;;;13.80;62.10;;;;;;6111575;23;19944;-63
2023/04/27 12:25:27;;;;;;;;;;;13.80;67.40;;;;;;6110395;23;19916;-63
2023/04/27 12:27:53;;;;;;;;;;;13.90;63.70;;;;;;6110609;23;19913;-63
2023/04/27 12:30:20;;;;;;;;;;;13.80;64.90;;;;;;6111250;23;20332;-63
2023/04/27 12:32:45;;;;;;;;;;;14.00;68.20;;;;;;6111867;23;19909;-63
2023/04/27 12:35:11;;;;;;;;;;;14.40;65.80;;;;;;6107115;23;19916;-63
2023/04/27 12:37:37;;;;;;;;;;;14.60;65.20;;;;;;6111973;23;19916;-63
2023/04/27 12:40:06;;;;;;;;;;;14.50;61.00;;;;;;6104610;23;19909;-64
2023/04/27 12:42:31;;;;;;;;;;;14.20;59.10;;;;;;6105543;23;19978;-65
2023/04/27 12:44:57;;;;;;;;;;;13.80;60.50;;;;;;6110622;23;20352;-63
2023/04/27 12:47:23;;;;;;;;;;;13.80;64.20;;;;;;6111703;23;19917;-63
2023/04/27 12:49:49;;;;;;;;;;;14.00;66.00;;;;;;6109999;23;19916;-63
2023/04/27 12:52:15;;;;;;;;;;;14.30;68.50;;;;;;6085611;23;19911;-63
2023/04/27 12:54:41;;;;;;;;;;;14.50;63.90;;;;;;6113031;23;19909;-63
2023/04/27 12:57:06;;;;;;;;;;;14.60;63.10;;;;;;6109369;23;19927;-63
2023/04/27 12:59:32;;;;;;;;;;;14.70;63.00;;;;;;6104630;23;19909;-63
2023/04/27 13:01:58;;;;;;;;;;;14.80;59.80;;;;;;6107469;23;19920;-63
2023/04/27 13:04:23;;;;;;;;;;;14.90;58.40;;;;;;6109609;23;19908;-63
2023/04/27 13:06:49;;;;;;;;;;;15.00;61.70;;;;;;6084765;23;20638;-61
2023/04/27 13:09:15;;;;;;;;;;;15.00;62.20;;;;;;6111324;23;19909;-61
2023/04/27 13:11:41;;;;;;;;;;;15.00;58.40;;;;;;6081742;23;19916;-63
2023/04/27 13:14:06;;;;;;;;;;;15.00;59.50;;;;;;6107297;23;19909;-60
2023/04/27 13:16:32;;;;;;;;;;;15.10;60.70;;;;;;6109801;23;19909;-61
2023/04/27 13:18:57;;;;;;;;;;;15.20;59.70;;;;;;6108699;23;19909;-61
2023/04/27 13:21:23;;;;;;;;;;;15.40;58.00;;;;;;6108010;23;19940;-62
2023/04/27 13:23:50;;;;;;;;;;;15.30;57.10;;;;;;6110434;23;20269;-61
2023/04/27 13:26:15;;;;;;;;;;;15.00;59.30;;;;;;6084464;23;19917;-61
2023/04/27 13:28:41;;;;;;;;;;;14.90;60.60;;;;;;6110014;23;19914;-61
2023/04/27 13:31:06;;;;;;;;;;;14.90;59.20;;;;;;6110670;23;20220;-63
2023/04/27 13:33:38;;;;;;;;;;;15.00;60.20;;;;;;6109389;23;19909;-64
2023/04/27 13:36:04;;;;;;;;;;;14.90;61.30;;;;;;6082282;23;19912;-65
2023/04/27 13:38:30;;;;;;;;;;;15.10;59.20;;;;;;6111538;23;19909;-64
2023/04/27 13:40:55;;;;;;;;;;;15.10;60.50;;;;;;6107802;23;20408;-66
2023/04/27 13:43:21;;;;;;;;;;;15.10;61.60;;;;;;6085534;23;19921;-65
2023/04/27 13:45:48;;;;;;;;;;;15.10;59.30;;;;;;6110095;23;19972;-65
2023/04/27 13:48:13;;;;;;;;;;;15.00;61.00;;;;;;6111069;23;19917;-65
2023/04/27 13:50:39;;;;;;;;;;;15.10;60.40;;;;;;6110569;23;19920;-64
2023/04/27 13:53:04;;;;;;;;;;;15.10;60.80;;;;;;6084055;23;20508;-64
2023/04/27 13:55:30;;;;;;;;;;;15.30;62.40;;;;;;6107130;23;19919;-65
2023/04/27 13:57:56;;;;;;;;;;;15.40;60.30;;;;;;6109389;23;20362;-70
2023/04/27 14:00:21;;;;;;;;;;;15.30;58.00;;;;;;6111935;23;20323;-65
2023/04/27 14:02:47;;;;;;;;;;;15.40;58.80;;;;;;6106074;23;20677;-65
2023/04/27 14:05:12;;;;;;;;;;;15.40;60.10;;;;;;6113086;23;19916;-65
2023/04/27 14:07:38;;;;;;;;;;;15.40;60.90;;;;;;6109861;23;20406;-65
2023/04/27 14:10:04;;;;;;;;;;;15.40;60.70;;;;;;6109111;23;19940;-66
2023/04/27 14:12:32;;;;;;;;;;;15.40;59.20;;;;;;6083689;23;19943;-66
2023/04/27 14:14:58;;;;;;;;;;;15.40;62.10;;;;;;6109482;23;19909;-66
2023/04/27 14:17:23;;;;;;;;;;;15.50;60.30;;;;;;6110772;23;19956;-66